createdAt,value
2023-03-30T00:01:20.024Z,5.20
2023-03-30T00:03:48.169Z,2.35
2023-03-30T00:06:23.473Z,2.65
2023-03-30T00:08:57.434Z,2.53
2023-03-30T00:11:25.335Z,3.92
2023-03-30T00:13:52.433Z,3.40
2023-03-30T00:16:20.660Z,2.67
2023-03-30T00:18:47.653Z,2.60
2023-03-30T00:21:21.232Z,2.05
2023-03-30T00:23:48.277Z,2.00
2023-03-30T00:26:16.261Z,3.10
2023-03-30T00:28:43.105Z,2.45
2023-03-30T00:31:11.386Z,2.92
2023-03-30T00:33:46.485Z,4.93
2023-03-30T00:36:14.722Z,3.30
2023-03-30T00:38:41.893Z,2.17
2023-03-30T00:41:09.518Z,2.72
2023-03-30T00:43:55.754Z,2.17
2023-03-30T00:46:24.154Z,2.67
2023-03-30T00:48:51.463Z,2.30
2023-03-30T00:51:19.480Z,1.65
2023-03-30T00:53:49.685Z,3.20
2023-03-30T00:56:19.742Z,2.38
2023-03-30T00:58:48.069Z,2.67
2023-03-30T01:01:25.835Z,2.72
2023-03-30T01:03:53.990Z,5.80
2023-03-30T01:06:24.552Z,2.42
2023-03-30T01:08:54.214Z,2.90
2023-03-30T01:11:21.691Z,2.05
2023-03-30T01:13:52.179Z,4.60
2023-03-30T01:16:33.762Z,4.15
2023-03-30T01:19:38.209Z,2.22
2023-03-30T01:22:43.553Z,2.67
2023-03-30T01:25:48.677Z,2.92
2023-03-30T01:28:41.926Z,3.55
2023-03-30T01:31:40.224Z,2.55
2023-03-30T01:34:31.107Z,6.60
2023-03-30T01:37:31.945Z,3.30
2023-03-30T01:40:15.515Z,2.55
2023-03-30T01:43:02.949Z,3.97
2023-03-30T01:45:32.930Z,2.40
2023-03-30T01:48:11.533Z,3.03
2023-03-30T01:50:47.280Z,2.55
2023-03-30T01:55:57.886Z,2.40
2023-03-30T01:58:49.873Z,2.25
2023-03-30T02:01:20.874Z,2.60
2023-03-30T02:03:53.592Z,2.30
2023-03-30T02:06:38.998Z,2.60
2023-03-30T02:09:10.569Z,2.92
2023-03-30T02:11:42.075Z,1.85
2023-03-30T02:14:11.234Z,2.47
2023-03-30T02:16:44.984Z,2.72
2023-03-30T02:19:12.085Z,5.28
2023-03-30T02:21:39.180Z,2.50
2023-03-30T02:24:10.063Z,4.35
2023-03-30T02:26:37.231Z,3.75
2023-03-30T02:29:06.327Z,3.30
2023-03-30T02:31:34.288Z,2.75
2023-03-30T02:34:23.756Z,4.13
2023-03-30T02:37:14.694Z,3.63
2023-03-30T02:39:47.836Z,2.97
2023-03-30T02:42:21.545Z,2.78
2023-03-30T02:45:09.707Z,3.00
2023-03-30T02:47:41.376Z,3.63
2023-03-30T02:50:37.516Z,3.55
2023-03-30T02:53:39.567Z,5.90
2023-03-30T02:56:11.538Z,4.95
2023-03-30T02:58:55.688Z,9.13
2023-03-30T03:01:34.995Z,3.03
2023-03-30T03:04:11.355Z,2.40
2023-03-30T03:07:20.472Z,2.90
2023-03-30T03:09:48.187Z,5.18
2023-03-30T03:12:15.554Z,2.95
2023-03-30T03:14:43.223Z,2.58
2023-03-30T03:17:13.747Z,2.85
2023-03-30T03:19:44.882Z,2.20
2023-03-30T03:22:12.696Z,2.65
2023-03-30T03:24:41.176Z,2.70
2023-03-30T03:27:37.191Z,2.50
2023-03-30T03:30:18.484Z,4.03
2023-03-30T03:32:53.854Z,5.00
2023-03-30T03:35:21.842Z,3.60
2023-03-30T03:37:49.006Z,2.85
2023-03-30T03:40:16.880Z,3.95
2023-03-30T03:42:44.648Z,2.75
2023-03-30T03:45:13.528Z,2.55
2023-03-30T03:47:59.025Z,5.32
2023-03-30T03:50:54.264Z,3.03
2023-03-30T03:53:22.163Z,11.02
2023-03-30T03:55:53.690Z,3.08
2023-03-30T03:58:21.994Z,2.70
2023-03-30T04:01:01.095Z,4.32
2023-03-30T04:03:28.610Z,4.97
2023-03-30T04:05:59.053Z,4.28
2023-03-30T04:08:26.642Z,6.57
2023-03-30T04:10:54.344Z,2.58
2023-03-30T04:13:48.375Z,3.20
2023-03-30T04:16:36.795Z,3.00
2023-03-30T04:19:18.110Z,9.75
2023-03-30T04:21:53.130Z,3.67
2023-03-30T04:24:38.243Z,6.65
2023-03-30T04:27:25.864Z,3.15
2023-03-30T04:29:58.663Z,5.47
2023-03-30T04:33:03.915Z,4.97
2023-03-30T04:35:54.176Z,3.53
2023-03-30T04:39:07.386Z,7.38
2023-03-30T04:41:54.407Z,3.40
2023-03-30T04:44:38.827Z,4.57
2023-03-30T04:47:29.116Z,3.80
2023-03-30T04:50:16.656Z,4.38
2023-03-30T04:53:01.993Z,4.80
2023-03-30T04:56:01.324Z,4.65
2023-03-30T04:58:41.046Z,6.10
2023-03-30T05:01:30.408Z,5.55
2023-03-30T05:04:17.125Z,5.72
2023-03-30T05:07:02.662Z,15.60
2023-03-30T05:09:52.623Z,3.92
2023-03-30T05:12:25.273Z,8.38
2023-03-30T05:15:12.386Z,6.28
2023-03-30T05:18:05.860Z,3.28
2023-03-30T05:20:59.461Z,5.82
2023-03-30T05:23:51.478Z,3.55
2023-03-30T05:26:40.018Z,6.78
2023-03-30T05:29:10.136Z,10.55
2023-03-30T05:32:03.332Z,5.00
2023-03-30T05:35:02.943Z,4.28
2023-03-30T05:37:42.277Z,3.50
2023-03-30T05:40:27.924Z,4.88
2023-03-30T05:43:21.732Z,4.80
2023-03-30T05:46:21.568Z,6.95
2023-03-30T05:49:08.993Z,4.38
2023-03-30T05:51:50.214Z,6.30
2023-03-30T05:54:36.389Z,7.40
2023-03-30T05:57:22.175Z,13.95
2023-03-30T06:00:12.642Z,5.15
2023-03-30T06:02:46.218Z,10.35
2023-03-30T06:05:20.521Z,5.05
2023-03-30T06:07:47.584Z,3.35
2023-03-30T06:10:16.504Z,12.90
2023-03-30T06:12:54.917Z,6.47
2023-03-30T06:15:40.060Z,3.55
2023-03-30T06:18:10.284Z,4.70
2023-03-30T06:20:42.823Z,5.22
2023-03-30T06:23:10.258Z,4.05
2023-03-30T06:25:39.977Z,6.95
2023-03-30T06:28:08.006Z,4.18
2023-03-30T06:30:35.683Z,4.05
2023-03-30T06:33:08.131Z,8.75
2023-03-30T06:35:50.181Z,7.60
2023-03-30T06:38:21.775Z,4.18
2023-03-30T06:40:51.386Z,7.65
2023-03-30T06:43:23.877Z,3.75
2023-03-30T06:46:15.855Z,7.82
2023-03-30T06:48:47.839Z,7.40
2023-03-30T06:51:37.947Z,7.82
2023-03-30T06:54:07.141Z,5.32
2023-03-30T06:56:34.575Z,5.00
2023-03-30T06:59:15.589Z,5.18
2023-03-30T07:02:18.141Z,2.00
2023-03-30T07:05:15.898Z,2.38
2023-03-30T07:08:21.410Z,22.50
2023-03-30T07:10:53.091Z,2.60
2023-03-30T07:13:22.399Z,3.80
2023-03-30T07:15:52.531Z,5.05
2023-03-30T07:18:20.134Z,3.47
2023-03-30T07:20:51.076Z,6.53
2023-03-30T07:23:26.258Z,3.47
2023-03-30T07:25:56.571Z,4.25
2023-03-30T07:28:42.105Z,2.05
2023-03-30T07:31:13.906Z,1.70
2023-03-30T07:33:42.827Z,3.63
2023-03-30T07:36:13.732Z,2.17
2023-03-30T07:38:41.080Z,3.33
2023-03-30T07:41:11.607Z,3.65
2023-03-30T07:43:40.833Z,5.85
2023-03-30T07:46:10.124Z,4.93
2023-03-30T07:48:40.849Z,1.85
2023-03-30T07:51:11.631Z,1.88
2023-03-30T07:53:48.862Z,4.35
2023-03-30T07:56:31.875Z,4.85
2023-03-30T07:59:01.723Z,2.17
2023-03-30T08:01:36.417Z,6.90
2023-03-30T08:04:31.806Z,1.95
2023-03-30T08:07:01.421Z,4.13
2023-03-30T08:09:34.362Z,2.30
2023-03-30T08:12:12.879Z,7.68
2023-03-30T08:14:40.377Z,4.53
2023-03-30T08:17:07.817Z,5.00
2023-03-30T08:19:35.044Z,4.15
2023-03-30T08:22:02.251Z,15.43
2023-03-30T08:24:29.547Z,4.30
2023-03-30T08:27:00.700Z,2.58
2023-03-30T08:29:33.978Z,1.65
2023-03-30T08:34:36.158Z,3.47
2023-03-30T08:37:05.714Z,1.75
2023-03-30T08:39:33.341Z,3.75
2023-03-30T08:42:37.219Z,1.52
2023-03-30T08:45:05.645Z,1.00
2023-03-30T08:47:44.470Z,2.53
2023-03-30T08:50:32.053Z,4.60
2023-03-30T08:53:03.199Z,2.40
2023-03-30T08:55:32.910Z,2.40
2023-03-30T08:58:06.724Z,2.25
2023-03-30T09:01:08.210Z,3.00
2023-03-30T09:03:45.234Z,3.80
2023-03-30T09:06:26.498Z,1.50
2023-03-30T09:08:53.979Z,3.45
2023-03-30T09:12:07.224Z,3.90
2023-03-30T09:14:45.323Z,1.70
2023-03-30T09:17:18.629Z,11.02
2023-03-30T09:22:24.454Z,7.80
2023-03-30T09:24:53.804Z,2.30
2023-03-30T09:27:28.359Z,3.05
2023-03-30T09:29:58.474Z,2.47
2023-03-30T09:32:44.834Z,2.33
2023-03-30T09:35:21.974Z,2.13
2023-03-30T09:37:49.206Z,2.88
2023-03-30T09:40:48.458Z,6.07
2023-03-30T09:43:25.386Z,3.15
2023-03-30T09:45:52.751Z,4.93
2023-03-30T09:48:21.887Z,3.25
2023-03-30T09:50:48.824Z,3.33
2023-03-30T09:53:27.642Z,5.40
2023-03-30T09:56:07.522Z,6.75
2023-03-30T09:58:36.157Z,6.55
2023-03-30T10:01:06.110Z,5.00
2023-03-30T10:03:44.833Z,1.77
2023-03-30T10:06:18.680Z,2.45
2023-03-30T10:09:00.942Z,7.20
2023-03-30T10:11:44.084Z,2.53
2023-03-30T10:14:38.608Z,2.08
2023-03-30T10:17:10.221Z,3.28
2023-03-30T10:19:45.954Z,1.52
2023-03-30T10:22:26.900Z,1.92
2023-03-30T10:25:00.174Z,2.50
2023-03-30T10:27:39.789Z,2.30
2023-03-30T10:30:12.901Z,3.38
2023-03-30T10:32:51.978Z,1.73
2023-03-30T10:35:28.613Z,3.85
2023-03-30T10:37:58.839Z,1.75
2023-03-30T10:40:38.492Z,4.05
2023-03-30T10:43:30.565Z,5.40
2023-03-30T10:46:19.295Z,2.05
2023-03-30T10:48:57.045Z,4.32
2023-03-30T10:51:52.223Z,1.25
2023-03-30T10:54:27.897Z,1.45
2023-03-30T10:57:46.103Z,2.00
2023-03-30T11:00:36.032Z,1.48
2023-03-30T11:03:33.363Z,3.47
2023-03-30T11:06:18.222Z,2.80
2023-03-30T11:08:51.036Z,1.38
2023-03-30T11:12:03.242Z,4.25
2023-03-30T11:14:57.176Z,5.82
2023-03-30T11:17:54.910Z,3.17
2023-03-30T11:20:34.806Z,2.33
2023-03-30T11:23:30.907Z,4.90
2023-03-30T11:26:09.272Z,1.10
2023-03-30T11:28:56.957Z,1.92
2023-03-30T11:31:48.776Z,3.45
2023-03-30T11:34:30.352Z,8.95
2023-03-30T11:37:23.942Z,1.15
2023-03-30T11:39:59.001Z,4.88
2023-03-30T11:42:30.813Z,5.82
2023-03-30T11:44:58.978Z,3.15
2023-03-30T11:47:32.090Z,1.15
2023-03-30T11:50:13.502Z,1.77
2023-03-30T11:53:01.484Z,2.83
2023-03-30T11:55:39.822Z,2.28
2023-03-30T11:58:33.234Z,2.17
2023-03-30T12:01:17.869Z,1.30
2023-03-30T12:03:59.420Z,3.10
2023-03-30T12:06:47.499Z,6.95
2023-03-30T12:09:25.695Z,2.67
2023-03-30T12:11:55.793Z,1.23
2023-03-30T12:14:45.987Z,1.77
2023-03-30T12:17:49.116Z,2.95
2023-03-30T12:20:28.205Z,3.95
2023-03-30T12:23:12.655Z,1.38
2023-03-30T12:26:22.335Z,2.33
2023-03-30T12:29:36.031Z,1.58
2023-03-30T12:32:05.404Z,2.83
2023-03-30T12:34:38.195Z,1.90
2023-03-30T12:37:15.067Z,1.52
2023-03-30T12:40:23.149Z,9.38
2023-03-30T12:43:19.190Z,2.65
2023-03-30T12:46:07.878Z,1.95
2023-03-30T12:49:04.260Z,2.03
2023-03-30T12:51:46.217Z,3.22
2023-03-30T12:54:28.613Z,2.85
2023-03-30T12:57:30.491Z,5.00
2023-03-30T13:00:19.234Z,4.22
2023-03-30T13:03:24.893Z,1.67
2023-03-30T13:06:08.784Z,2.13
2023-03-30T13:08:42.337Z,1.77
2023-03-30T13:11:17.550Z,4.72
2023-03-30T13:14:08.597Z,2.10
2023-03-30T13:17:12.459Z,1.10
2023-03-30T13:20:15.424Z,3.13
2023-03-30T13:23:02.307Z,1.25
2023-03-30T13:25:41.392Z,2.65
2023-03-30T13:28:30.063Z,3.70
2023-03-30T13:31:06.271Z,2.90
2023-03-30T13:33:37.591Z,1.92
2023-03-30T13:36:17.503Z,2.00
2023-03-30T13:38:55.854Z,1.20
2023-03-30T13:41:53.109Z,2.20
2023-03-30T13:44:47.126Z,4.43
2023-03-30T13:50:00.110Z,2.78
2023-03-30T13:52:41.102Z,1.88
2023-03-30T13:55:24.607Z,2.00
2023-03-30T13:57:59.564Z,1.42
2023-03-30T14:00:39.915Z,1.63
2023-03-30T14:04:00.979Z,3.85
2023-03-30T14:06:36.883Z,1.42
2023-03-30T14:09:06.826Z,4.25
2023-03-30T14:11:41.719Z,2.67
2023-03-30T14:14:17.003Z,1.55
2023-03-30T14:16:46.800Z,2.58
2023-03-30T14:19:22.587Z,1.25
2023-03-30T14:21:53.014Z,1.88
2023-03-30T14:24:29.985Z,1.38
2023-03-30T14:27:07.613Z,1.08
2023-03-30T14:29:36.877Z,12.38
2023-03-30T14:32:10.952Z,4.38
2023-03-30T14:37:13.733Z,2.47
2023-03-30T14:39:53.327Z,5.68
2023-03-30T14:42:24.470Z,3.72
2023-03-30T14:45:17.749Z,8.85
2023-03-30T14:47:57.989Z,1.80
2023-03-30T14:50:30.622Z,3.90
2023-03-30T14:53:00.612Z,1.75
2023-03-30T14:55:41.421Z,2.38
2023-03-30T14:58:25.865Z,3.20
2023-03-30T15:01:09.080Z,5.00
2023-03-30T15:03:38.044Z,2.15
2023-03-30T15:06:16.170Z,1.77
2023-03-30T15:08:47.290Z,2.03
2023-03-30T15:11:25.123Z,1.42
2023-03-30T15:16:42.278Z,2.50
2023-03-30T15:19:40.651Z,14.95
2023-03-30T15:22:39.719Z,1.80
2023-03-30T15:25:36.938Z,2.85
2023-03-30T15:28:19.229Z,2.83
2023-03-30T15:30:52.833Z,1.77
2023-03-30T15:33:46.250Z,2.00
2023-03-30T15:36:26.850Z,9.85
2023-03-30T15:38:57.233Z,2.35
2023-03-30T15:41:46.244Z,2.22
2023-03-30T15:44:23.098Z,3.42
2023-03-30T15:46:53.389Z,2.15
2023-03-30T15:49:32.228Z,2.85
2023-03-30T15:52:05.466Z,3.78
2023-03-30T15:55:07.782Z,8.25
2023-03-30T15:57:43.462Z,4.03
2023-03-30T16:02:58.433Z,7.05
2023-03-30T16:05:38.689Z,2.20
2023-03-30T16:08:08.258Z,2.08
2023-03-30T16:11:12.162Z,3.47
2023-03-30T16:13:46.624Z,3.78
2023-03-30T16:16:15.585Z,2.30
2023-03-30T16:18:45.376Z,2.47
2023-03-30T16:21:12.512Z,3.70
2023-03-30T16:23:41.916Z,3.28
2023-03-30T16:26:13.187Z,4.10
2023-03-30T16:28:43.025Z,8.32
2023-03-30T16:31:19.758Z,3.83
2023-03-30T16:33:46.908Z,3.50
2023-03-30T16:36:18.630Z,4.35
2023-03-30T16:38:47.907Z,7.40
2023-03-30T16:41:26.072Z,4.57
2023-03-30T16:43:53.968Z,4.10
2023-03-30T16:46:22.318Z,5.55
2023-03-30T16:48:50.355Z,8.65
2023-03-30T16:51:17.593Z,5.70
2023-03-30T16:53:44.654Z,7.22
2023-03-30T16:56:19.111Z,7.45
2023-03-30T16:58:48.540Z,9.32
2023-03-30T17:01:21.424Z,12.52
2023-03-30T17:03:48.392Z,8.63
2023-03-30T17:06:16.992Z,4.95
2023-03-30T17:08:47.505Z,6.25
2023-03-30T17:11:20.621Z,5.65
2023-03-30T17:13:48.993Z,6.43
2023-03-30T17:16:18.042Z,6.05
2023-03-30T17:18:45.187Z,6.00
2023-03-30T17:21:16.988Z,7.63
2023-03-30T17:23:47.912Z,8.55
2023-03-30T17:26:14.980Z,10.30
2023-03-30T17:28:43.980Z,7.47
2023-03-30T17:31:20.310Z,10.27
2023-03-30T17:33:47.911Z,6.82
2023-03-30T17:36:22.359Z,10.98
2023-03-30T17:38:50.848Z,8.18
2023-03-30T17:41:19.608Z,12.82
2023-03-30T17:43:51.584Z,6.97
2023-03-30T17:46:22.734Z,12.18
2023-03-30T17:48:58.987Z,9.05
2023-03-30T17:51:29.536Z,8.07
2023-03-30T17:53:56.741Z,5.90
2023-03-30T17:56:23.680Z,7.90
2023-03-30T17:58:53.184Z,11.93
2023-03-30T18:01:20.007Z,23.05
2023-03-30T18:03:49.455Z,8.95
2023-03-30T18:06:18.994Z,9.38
2023-03-30T18:08:50.897Z,6.38
2023-03-30T18:11:22.864Z,13.82
2023-03-30T18:13:51.857Z,7.70
2023-03-30T18:16:24.447Z,11.25
2023-03-30T18:18:55.162Z,8.15
2023-03-30T18:21:23.266Z,6.72
2023-03-30T18:23:50.771Z,6.90
2023-03-30T18:26:17.775Z,9.27
2023-03-30T18:28:55.826Z,9.32
2023-03-30T18:31:23.297Z,15.00
2023-03-30T18:33:53.031Z,13.40
2023-03-30T18:36:20.983Z,23.52
2023-03-30T18:38:53.039Z,9.30
2023-03-30T18:41:20.113Z,13.90
2023-03-30T18:43:47.140Z,26.23
2023-03-30T18:46:14.239Z,18.60
2023-03-30T18:48:41.423Z,10.02
2023-03-30T18:51:10.985Z,16.38
2023-03-30T18:53:37.880Z,19.60
2023-03-30T18:56:04.953Z,21.25
2023-03-30T18:58:33.917Z,26.13
2023-03-30T19:01:03.284Z,32.47
2023-03-30T19:03:30.405Z,25.75
2023-03-30T19:05:57.436Z,22.40
2023-03-30T19:08:26.463Z,30.27
2023-03-30T19:10:58.492Z,29.20
2023-03-30T19:13:33.930Z,30.13
2023-03-30T19:16:04.346Z,26.60
2023-03-30T19:18:31.516Z,24.40
2023-03-30T19:20:58.287Z,21.45
2023-03-30T19:23:27.881Z,43.83
2023-03-30T19:25:54.684Z,41.05
2023-03-30T19:28:26.070Z,34.40
2023-03-30T19:30:55.736Z,33.05
2023-03-30T19:33:24.914Z,33.13
2023-03-30T19:35:52.241Z,35.05
2023-03-30T19:38:21.160Z,27.88
2023-03-30T19:40:48.009Z,35.25
2023-03-30T19:43:15.329Z,35.25
2023-03-30T19:45:42.103Z,37.17
2023-03-30T19:48:09.667Z,31.98
2023-03-30T19:50:40.731Z,43.42
2023-03-30T19:53:08.035Z,37.13
2023-03-30T19:55:36.166Z,36.97
2023-03-30T19:58:09.728Z,45.15
2023-03-30T20:00:37.666Z,33.47
2023-03-30T20:03:06.716Z,41.85
2023-03-30T20:05:36.801Z,43.55
2023-03-30T20:08:17.036Z,41.63
2023-03-30T20:10:54.857Z,31.05
2023-03-30T20:13:24.109Z,42.75
2023-03-30T20:15:55.995Z,42.40
2023-03-30T20:18:23.026Z,35.83
2023-03-30T20:20:49.893Z,47.58
2023-03-30T20:23:16.949Z,48.53
2023-03-30T20:25:49.288Z,41.72
2023-03-30T20:28:17.597Z,47.63
2023-03-30T20:30:44.430Z,48.22
2023-03-30T20:33:11.433Z,53.03
2023-03-30T20:35:38.868Z,47.83
2023-03-30T20:38:14.041Z,38.88
2023-03-30T20:40:41.042Z,52.00
2023-03-30T20:43:10.233Z,42.35
2023-03-30T20:45:46.524Z,47.65
2023-03-30T20:48:27.224Z,44.38
2023-03-30T20:50:55.174Z,47.33
2023-03-30T20:53:23.042Z,43.90
2023-03-30T20:55:49.908Z,47.03
2023-03-30T20:58:16.738Z,52.35
2023-03-30T21:00:44.752Z,49.10
2023-03-30T21:03:14.202Z,46.35
2023-03-30T21:05:42.465Z,51.03
2023-03-30T21:08:09.358Z,43.50
2023-03-30T21:10:36.439Z,46.38
2023-03-30T21:13:03.390Z,35.13
2023-03-30T21:15:30.402Z,42.72
2023-03-30T21:17:57.355Z,41.33
2023-03-30T21:20:24.473Z,40.22
2023-03-30T21:22:53.457Z,37.45
2023-03-30T21:25:21.760Z,45.92
2023-03-30T21:27:48.574Z,39.83
2023-03-30T21:30:15.902Z,44.00
2023-03-30T21:32:42.815Z,38.72
2023-03-30T21:35:09.796Z,40.50
2023-03-30T21:37:36.648Z,34.35
2023-03-30T21:40:05.900Z,29.02
2023-03-30T21:42:36.096Z,20.13
2023-03-30T21:45:05.251Z,16.75
2023-03-30T21:47:34.107Z,18.38
2023-03-30T21:50:01.065Z,13.38
2023-03-30T21:52:29.476Z,15.57
2023-03-30T21:54:56.487Z,25.10
2023-03-30T21:57:23.542Z,26.45
2023-03-30T21:59:50.608Z,29.23
2023-03-30T22:02:17.629Z,23.42
2023-03-30T22:04:44.732Z,27.73
2023-03-30T22:07:11.849Z,25.98
2023-03-30T22:09:39.004Z,24.88
2023-03-30T22:12:06.697Z,26.67
2023-03-30T22:14:36.901Z,27.67
2023-03-30T22:17:03.951Z,27.23
2023-03-30T22:19:34.475Z,28.63
2023-03-30T22:22:01.762Z,28.88
2023-03-30T22:24:29.095Z,30.48
2023-03-30T22:26:56.439Z,28.40
2023-03-30T22:29:25.872Z,34.28
2023-03-30T22:31:55.876Z,27.45
2023-03-30T22:34:26.054Z,27.00
2023-03-30T22:36:55.220Z,23.55
2023-03-30T22:39:22.066Z,21.00
2023-03-30T22:41:56.161Z,17.67
2023-03-30T22:44:23.122Z,22.10
2023-03-30T22:46:49.968Z,22.08
2023-03-30T22:49:19.972Z,28.33
2023-03-30T22:51:52.760Z,22.88
2023-03-30T22:54:21.804Z,26.67
2023-03-30T22:56:51.235Z,30.38
2023-03-30T22:59:18.235Z,38.30
2023-03-30T23:01:45.078Z,29.42
2023-03-30T23:04:12.217Z,28.73
2023-03-30T23:06:39.221Z,34.35
2023-03-30T23:09:06.813Z,27.33
2023-03-30T23:11:34.260Z,31.58
2023-03-30T23:14:07.105Z,33.22
2023-03-30T23:16:36.144Z,22.73
2023-03-30T23:19:03.608Z,28.88
2023-03-30T23:21:36.788Z,30.55
2023-03-30T23:24:06.595Z,20.20
2023-03-30T23:26:34.158Z,30.00
2023-03-30T23:29:00.890Z,35.65
2023-03-30T23:31:27.905Z,32.63
2023-03-30T23:33:56.339Z,30.38
2023-03-30T23:36:23.937Z,23.63
2023-03-30T23:38:51.698Z,24.92
2023-03-30T23:41:19.830Z,16.48
2023-03-30T23:43:47.090Z,16.33
2023-03-30T23:46:15.575Z,15.70
2023-03-30T23:48:42.585Z,12.48
2023-03-30T23:51:10.022Z,17.55
2023-03-30T23:53:40.359Z,18.60
2023-03-30T23:56:17.365Z,16.55
2023-03-30T23:58:45.007Z,13.60
